sensor_id;sensor_type;location;lat;lon;timestamp;temperature;humidity
20483;DHT22;10400;53.198;6.592;2023-06-24T00:01:21;18.50;99.90
20483;DHT22;10400;53.198;6.592;2023-06-24T00:03:48;18.50;99.90
20483;DHT22;10400;53.198;6.592;2023-06-24T00:06:14;18.50;99.90
20483;DHT22;10400;53.198;6.592;2023-06-24T00:08:44;18.50;99.90
20483;DHT22;10400;53.198;6.592;2023-06-24T00:11:10;18.40;99.90
20483;DHT22;10400;53.198;6.592;2023-06-24T00:13:36;18.30;99.90
20483;DHT22;10400;53.198;6.592;2023-06-24T00:16:02;18.30;99.90
20483;DHT22;10400;53.198;6.592;2023-06-24T00:18:28;18.30;99.90
20483;DHT22;10400;53.198;6.592;2023-06-24T00:20:55;18.30;99.90
20483;DHT22;10400;53.198;6.592;2023-06-24T00:23:22;18.30;99.90
20483;DHT22;10400;53.198;6.592;2023-06-24T00:25:52;18.20;99.90
20483;DHT22;10400;53.198;6.592;2023-06-24T00:28:18;18.20;99.90
20483;DHT22;10400;53.198;6.592;2023-06-24T00:30:44;18.20;99.90
20483;DHT22;10400;53.198;6.592;2023-06-24T00:33:09;18.10;99.90
20483;DHT22;10400;53.198;6.592;2023-06-24T00:35:37;18.10;99.90
20483;DHT22;10400;53.198;6.592;2023-06-24T00:38:03;18.00;99.90
20483;DHT22;10400;53.198;6.592;2023-06-24T00:40:29;18.00;99.90
20483;DHT22;10400;53.198;6.592;2023-06-24T00:42:55;18.00;99.90
20483;DHT22;10400;53.198;6.592;2023-06-24T00:45:24;18.00;99.90
20483;DHT22;10400;53.198;6.592;2023-06-24T00:47:50;17.90;99.90
20483;DHT22;10400;53.198;6.592;2023-06-24T00:50:17;17.90;99.90
20483;DHT22;10400;53.198;6.592;2023-06-24T00:52:43;17.90;99.90
20483;DHT22;10400;53.198;6.592;2023-06-24T00:55:10;17.90;99.90
20483;DHT22;10400;53.198;6.592;2023-06-24T00:57:39;17.80;99.90
20483;DHT22;10400;53.198;6.592;2023-06-24T01:00:05;17.90;99.90
20483;DHT22;10400;53.198;6.592;2023-06-24T01:02:41;17.80;99.90
20483;DHT22;10400;53.198;6.592;2023-06-24T01:05:08;17.80;99.90
20483;DHT22;10400;53.198;6.592;2023-06-24T01:07:35;17.80;99.90
20483;DHT22;10400;53.198;6.592;2023-06-24T01:10:06;17.80;99.90
20483;DHT22;10400;53.198;6.592;2023-06-24T01:12:37;17.80;99.90
20483;DHT22;10400;53.198;6.592;2023-06-24T01:15:09;17.70;99.90
20483;DHT22;10400;53.198;6.592;2023-06-24T01:20:11;17.70;99.90
20483;DHT22;10400;53.198;6.592;2023-06-24T01:28:33;17.70;99.90
20483;DHT22;10400;53.198;6.592;2023-06-24T01:36:34;17.60;99.90
20483;DHT22;10400;53.198;6.592;2023-06-24T01:39:06;17.50;99.90
20483;DHT22;10400;53.198;6.592;2023-06-24T01:41:39;17.50;99.90
20483;DHT22;10400;53.198;6.592;2023-06-24T01:44:08;17.50;99.90
20483;DHT22;10400;53.198;6.592;2023-06-24T01:46:36;17.50;99.90
20483;DHT22;10400;53.198;6.592;2023-06-24T01:49:04;17.40;99.90
20483;DHT22;10400;53.198;6.592;2023-06-24T01:51:35;17.40;99.90
20483;DHT22;10400;53.198;6.592;2023-06-24T01:54:08;17.40;99.90
20483;DHT22;10400;53.198;6.592;2023-06-24T01:56:37;17.40;99.90
20483;DHT22;10400;53.198;6.592;2023-06-24T01:59:05;17.40;99.90
20483;DHT22;10400;53.198;6.592;2023-06-24T02:01:35;17.40;99.90
20483;DHT22;10400;53.198;6.592;2023-06-24T02:04:03;17.40;99.90
20483;DHT22;10400;53.198;6.592;2023-06-24T02:06:30;17.30;99.90
20483;DHT22;10400;53.198;6.592;2023-06-24T02:08:57;17.30;99.90
20483;DHT22;10400;53.198;6.592;2023-06-24T02:11:28;17.30;99.90
20483;DHT22;10400;53.198;6.592;2023-06-24T02:13:55;17.30;99.90
20483;DHT22;10400;53.198;6.592;2023-06-24T02:16:22;17.30;99.90
20483;DHT22;10400;53.198;6.592;2023-06-24T02:18:49;17.30;99.90
20483;DHT22;10400;53.198;6.592;2023-06-24T02:21:17;17.30;99.90
20483;DHT22;10400;53.198;6.592;2023-06-24T02:23:44;17.30;99.90
20483;DHT22;10400;53.198;6.592;2023-06-24T02:26:11;17.30;99.90
20483;DHT22;10400;53.198;6.592;2023-06-24T02:28:37;17.20;99.90
20483;DHT22;10400;53.198;6.592;2023-06-24T02:31:04;17.30;99.90
20483;DHT22;10400;53.198;6.592;2023-06-24T02:33:31;17.20;99.90
20483;DHT22;10400;53.198;6.592;2023-06-24T02:35:57;17.20;99.90
20483;DHT22;10400;53.198;6.592;2023-06-24T02:38:23;17.20;99.90
20483;DHT22;10400;53.198;6.592;2023-06-24T02:40:49;17.10;99.90
20483;DHT22;10400;53.198;6.592;2023-06-24T02:43:18;17.10;99.90
20483;DHT22;10400;53.198;6.592;2023-06-24T02:45:45;17.10;99.90
20483;DHT22;10400;53.198;6.592;2023-06-24T02:48:11;17.00;99.90
20483;DHT22;10400;53.198;6.592;2023-06-24T02:50:38;17.00;99.90
20483;DHT22;10400;53.198;6.592;2023-06-24T02:53:06;17.00;99.90
20483;DHT22;10400;53.198;6.592;2023-06-24T02:55:33;17.00;99.90
20483;DHT22;10400;53.198;6.592;2023-06-24T02:58:01;16.90;99.90
20483;DHT22;10400;53.198;6.592;2023-06-24T03:00:27;16.90;99.90
20483;DHT22;10400;53.198;6.592;2023-06-24T03:02:56;17.00;99.90
20483;DHT22;10400;53.198;6.592;2023-06-24T03:05:23;17.00;99.90
20483;DHT22;10400;53.198;6.592;2023-06-24T03:07:51;17.00;99.90
20483;DHT22;10400;53.198;6.592;2023-06-24T03:10:16;17.00;99.90
20483;DHT22;10400;53.198;6.592;2023-06-24T03:12:42;16.90;99.90
20483;DHT22;10400;53.198;6.592;2023-06-24T03:15:08;16.90;99.90
20483;DHT22;10400;53.198;6.592;2023-06-24T03:17:34;16.90;99.90
20483;DHT22;10400;53.198;6.592;2023-06-24T03:20:00;16.90;99.90
20483;DHT22;10400;53.198;6.592;2023-06-24T03:22:26;16.90;99.90
20483;DHT22;10400;53.198;6.592;2023-06-24T03:24:52;16.90;99.90
20483;DHT22;10400;53.198;6.592;2023-06-24T03:27:18;17.00;99.90
20483;DHT22;10400;53.198;6.592;2023-06-24T03:29:44;17.00;99.90
20483;DHT22;10400;53.198;6.592;2023-06-24T03:32:10;16.90;99.90
20483;DHT22;10400;53.198;6.592;2023-06-24T03:34:35;16.90;99.90
20483;DHT22;10400;53.198;6.592;2023-06-24T03:37:01;16.80;99.90
20483;DHT22;10400;53.198;6.592;2023-06-24T03:39:29;16.80;99.90
20483;DHT22;10400;53.198;6.592;2023-06-24T03:41:55;16.70;99.90
20483;DHT22;10400;53.198;6.592;2023-06-24T03:44:21;16.70;99.90
20483;DHT22;10400;53.198;6.592;2023-06-24T03:46:46;16.70;99.90
20483;DHT22;10400;53.198;6.592;2023-06-24T03:49:12;16.70;99.90
20483;DHT22;10400;53.198;6.592;2023-06-24T03:51:38;16.70;99.90
20483;DHT22;10400;53.198;6.592;2023-06-24T03:54:03;16.70;99.90
20483;DHT22;10400;53.198;6.592;2023-06-24T03:56:29;16.70;99.90
20483;DHT22;10400;53.198;6.592;2023-06-24T03:58:54;16.70;99.90
20483;DHT22;10400;53.198;6.592;2023-06-24T04:01:20;16.70;99.90
20483;DHT22;10400;53.198;6.592;2023-06-24T04:03:46;16.70;99.90
20483;DHT22;10400;53.198;6.592;2023-06-24T04:06:12;16.80;99.90
20483;DHT22;10400;53.198;6.592;2023-06-24T04:08:38;16.80;99.90
20483;DHT22;10400;53.198;6.592;2023-06-24T04:11:09;16.80;99.90
20483;DHT22;10400;53.198;6.592;2023-06-24T04:13:34;16.80;99.90
20483;DHT22;10400;53.198;6.592;2023-06-24T04:16:00;16.80;99.90
20483;DHT22;10400;53.198;6.592;2023-06-24T04:18:26;16.90;99.90
20483;DHT22;10400;53.198;6.592;2023-06-24T04:20:51;16.90;99.90
20483;DHT22;10400;53.198;6.592;2023-06-24T04:23:17;16.90;99.90
20483;DHT22;10400;53.198;6.592;2023-06-24T04:25:43;17.10;99.90
20483;DHT22;10400;53.198;6.592;2023-06-24T04:28:09;17.10;99.90
20483;DHT22;10400;53.198;6.592;2023-06-24T04:30:35;17.20;99.90
20483;DHT22;10400;53.198;6.592;2023-06-24T04:33:01;17.20;99.90
20483;DHT22;10400;53.198;6.592;2023-06-24T04:35:27;17.30;99.90
20483;DHT22;10400;53.198;6.592;2023-06-24T04:37:52;17.30;99.90
20483;DHT22;10400;53.198;6.592;2023-06-24T04:40:18;17.40;99.90
20483;DHT22;10400;53.198;6.592;2023-06-24T04:42:47;17.50;99.90
20483;DHT22;10400;53.198;6.592;2023-06-24T04:45:13;17.60;99.90
20483;DHT22;10400;53.198;6.592;2023-06-24T04:47:39;17.70;99.90
20483;DHT22;10400;53.198;6.592;2023-06-24T04:50:05;17.90;99.90
20483;DHT22;10400;53.198;6.592;2023-06-24T04:52:31;18.00;99.90
20483;DHT22;10400;53.198;6.592;2023-06-24T04:54:56;18.10;99.90
20483;DHT22;10400;53.198;6.592;2023-06-24T04:57:32;18.10;99.90
20483;DHT22;10400;53.198;6.592;2023-06-24T04:59:58;18.20;99.90
20483;DHT22;10400;53.198;6.592;2023-06-24T05:02:24;18.20;99.90
20483;DHT22;10400;53.198;6.592;2023-06-24T05:04:51;18.20;99.90
20483;DHT22;10400;53.198;6.592;2023-06-24T05:07:16;18.10;99.90
20483;DHT22;10400;53.198;6.592;2023-06-24T05:09:42;18.10;99.90
20483;DHT22;10400;53.198;6.592;2023-06-24T05:12:09;18.10;99.90
20483;DHT22;10400;53.198;6.592;2023-06-24T05:14:35;18.10;99.90
20483;DHT22;10400;53.198;6.592;2023-06-24T05:17:05;18.20;99.90
20483;DHT22;10400;53.198;6.592;2023-06-24T05:19:30;18.40;99.90
20483;DHT22;10400;53.198;6.592;2023-06-24T05:21:56;18.50;99.90
20483;DHT22;10400;53.198;6.592;2023-06-24T05:24:22;18.70;99.90
20483;DHT22;10400;53.198;6.592;2023-06-24T05:26:49;18.80;99.90
20483;DHT22;10400;53.198;6.592;2023-06-24T05:29:14;18.90;99.90
20483;DHT22;10400;53.198;6.592;2023-06-24T05:31:40;19.00;99.90
20483;DHT22;10400;53.198;6.592;2023-06-24T05:34:06;19.10;99.90
20483;DHT22;10400;53.198;6.592;2023-06-24T05:36:32;19.20;99.40
20483;DHT22;10400;53.198;6.592;2023-06-24T05:38:58;19.30;96.90
20483;DHT22;10400;53.198;6.592;2023-06-24T05:41:23;19.40;97.50
20483;DHT22;10400;53.198;6.592;2023-06-24T05:43:59;19.50;94.40
20483;DHT22;10400;53.198;6.592;2023-06-24T05:46:26;19.50;90.20
20483;DHT22;10400;53.198;6.592;2023-06-24T05:48:51;19.70;83.20
20483;DHT22;10400;53.198;6.592;2023-06-24T05:51:17;19.70;75.60
20483;DHT22;10400;53.198;6.592;2023-06-24T05:53:42;19.80;69.00
20483;DHT22;10400;53.198;6.592;2023-06-24T05:56:08;19.90;60.70
20483;DHT22;10400;53.198;6.592;2023-06-24T05:58:34;20.00;57.70
20483;DHT22;10400;53.198;6.592;2023-06-24T06:00:59;20.10;48.30
20483;DHT22;10400;53.198;6.592;2023-06-24T06:03:26;20.20;50.60
20483;DHT22;10400;53.198;6.592;2023-06-24T06:05:52;20.30;34.10
20483;DHT22;10400;53.198;6.592;2023-06-24T06:08:17;20.40;22.60
20483;DHT22;10400;53.198;6.592;2023-06-24T06:10:43;20.40;12.60
20483;DHT22;10400;53.198;6.592;2023-06-24T06:13:09;20.60;18.90
20483;DHT22;10400;53.198;6.592;2023-06-24T06:15:34;20.80;18.10
20483;DHT22;10400;53.198;6.592;2023-06-24T06:18:00;20.80;1.00
20483;DHT22;10400;53.198;6.592;2023-06-24T06:20:25;20.90;7.50
20483;DHT22;10400;53.198;6.592;2023-06-24T06:22:51;21.00;1.00
20483;DHT22;10400;53.198;6.592;2023-06-24T06:25:17;21.10;1.00
20483;DHT22;10400;53.198;6.592;2023-06-24T06:27:42;21.30;1.00
20483;DHT22;10400;53.198;6.592;2023-06-24T06:30:08;21.40;1.00
20483;DHT22;10400;53.198;6.592;2023-06-24T06:32:34;21.40;1.00
20483;DHT22;10400;53.198;6.592;2023-06-24T06:34:59;21.40;1.00
20483;DHT22;10400;53.198;6.592;2023-06-24T06:37:25;21.60;1.00
20483;DHT22;10400;53.198;6.592;2023-06-24T06:39:51;21.50;1.00
20483;DHT22;10400;53.198;6.592;2023-06-24T06:42:16;21.70;1.00
20483;DHT22;10400;53.198;6.592;2023-06-24T06:44:42;21.80;1.00
20483;DHT22;10400;53.198;6.592;2023-06-24T06:47:07;21.80;1.00
20483;DHT22;10400;53.198;6.592;2023-06-24T06:49:33;21.90;1.00
20483;DHT22;10400;53.198;6.592;2023-06-24T06:51:59;21.90;1.00
20483;DHT22;10400;53.198;6.592;2023-06-24T06:54:24;22.00;1.00
20483;DHT22;10400;53.198;6.592;2023-06-24T06:56:50;21.90;1.00
20483;DHT22;10400;53.198;6.592;2023-06-24T06:59:16;22.00;1.00
20483;DHT22;10400;53.198;6.592;2023-06-24T07:01:41;22.20;1.00
20483;DHT22;10400;53.198;6.592;2023-06-24T07:04:07;22.30;1.00
20483;DHT22;10400;53.198;6.592;2023-06-24T07:06:33;22.30;1.00
20483;DHT22;10400;53.198;6.592;2023-06-24T07:08:59;22.30;1.00
20483;DHT22;10400;53.198;6.592;2023-06-24T07:11:25;22.40;1.00
20483;DHT22;10400;53.198;6.592;2023-06-24T07:13:51;22.50;1.00
20483;DHT22;10400;53.198;6.592;2023-06-24T07:16:17;22.60;1.00
20483;DHT22;10400;53.198;6.592;2023-06-24T07:18:43;22.70;1.00
20483;DHT22;10400;53.198;6.592;2023-06-24T07:21:09;22.60;1.00
20483;DHT22;10400;53.198;6.592;2023-06-24T07:23:34;22.60;1.00
20483;DHT22;10400;53.198;6.592;2023-06-24T07:26:00;22.70;1.00
20483;DHT22;10400;53.198;6.592;2023-06-24T07:28:26;22.70;1.00
20483;DHT22;10400;53.198;6.592;2023-06-24T07:30:51;22.70;1.00
20483;DHT22;10400;53.198;6.592;2023-06-24T07:33:17;22.80;1.00
20483;DHT22;10400;53.198;6.592;2023-06-24T07:35:42;22.80;1.00
20483;DHT22;10400;53.198;6.592;2023-06-24T07:38:08;22.90;1.00
20483;DHT22;10400;53.198;6.592;2023-06-24T07:40:34;23.10;1.00
20483;DHT22;10400;53.198;6.592;2023-06-24T07:42:59;23.10;1.00
20483;DHT22;10400;53.198;6.592;2023-06-24T07:45:25;23.30;1.00
20483;DHT22;10400;53.198;6.592;2023-06-24T07:47:51;23.50;1.00
20483;DHT22;10400;53.198;6.592;2023-06-24T07:50:16;23.60;1.00
20483;DHT22;10400;53.198;6.592;2023-06-24T07:52:42;23.80;99.90
20483;DHT22;10400;53.198;6.592;2023-06-24T07:55:08;24.10;99.90
20483;DHT22;10400;53.198;6.592;2023-06-24T07:57:33;24.10;99.90
20483;DHT22;10400;53.198;6.592;2023-06-24T07:59:59;24.10;1.00
20483;DHT22;10400;53.198;6.592;2023-06-24T08:02:25;24.10;19.30
20483;DHT22;10400;53.198;6.592;2023-06-24T08:04:51;24.20;1.00
20483;DHT22;10400;53.198;6.592;2023-06-24T08:07:17;24.30;99.90
20483;DHT22;10400;53.198;6.592;2023-06-24T08:09:43;24.60;1.00
20483;DHT22;10400;53.198;6.592;2023-06-24T08:12:09;24.80;1.00
20483;DHT22;10400;53.198;6.592;2023-06-24T08:14:35;24.70;1.00
20483;DHT22;10400;53.198;6.592;2023-06-24T08:17:01;24.80;99.90
20483;DHT22;10400;53.198;6.592;2023-06-24T08:19:26;25.00;1.00
20483;DHT22;10400;53.198;6.592;2023-06-24T08:21:52;25.00;99.90
20483;DHT22;10400;53.198;6.592;2023-06-24T08:24:18;24.90;1.00
20483;DHT22;10400;53.198;6.592;2023-06-24T08:26:44;24.90;1.00
20483;DHT22;10400;53.198;6.592;2023-06-24T08:29:10;24.70;1.00
20483;DHT22;10400;53.198;6.592;2023-06-24T08:31:35;24.60;1.00
20483;DHT22;10400;53.198;6.592;2023-06-24T08:34:01;24.70;1.00
20483;DHT22;10400;53.198;6.592;2023-06-24T08:36:28;24.60;99.90
20483;DHT22;10400;53.198;6.592;2023-06-24T08:38:55;24.80;1.00
20483;DHT22;10400;53.198;6.592;2023-06-24T08:41:20;24.80;1.00
20483;DHT22;10400;53.198;6.592;2023-06-24T08:43:47;24.90;99.90
20483;DHT22;10400;53.198;6.592;2023-06-24T08:46:13;25.00;99.90
20483;DHT22;10400;53.198;6.592;2023-06-24T08:48:43;25.20;16.70
20483;DHT22;10400;53.198;6.592;2023-06-24T08:51:09;25.40;1.00
20483;DHT22;10400;53.198;6.592;2023-06-24T08:53:37;25.50;1.00
20483;DHT22;10400;53.198;6.592;2023-06-24T08:56:04;25.50;1.00
20483;DHT22;10400;53.198;6.592;2023-06-24T08:58:30;25.30;1.00
20483;DHT22;10400;53.198;6.592;2023-06-24T09:00:56;25.40;50.10
20483;DHT22;10400;53.198;6.592;2023-06-24T09:03:22;25.20;99.90
20483;DHT22;10400;53.198;6.592;2023-06-24T09:05:48;25.20;1.00
20483;DHT22;10400;53.198;6.592;2023-06-24T09:08:14;25.40;99.90
20483;DHT22;10400;53.198;6.592;2023-06-24T09:10:41;25.50;99.90
20483;DHT22;10400;53.198;6.592;2023-06-24T09:13:07;25.60;1.00
20483;DHT22;10400;53.198;6.592;2023-06-24T09:15:34;25.70;99.90
20483;DHT22;10400;53.198;6.592;2023-06-24T09:18:00;25.80;1.00
20483;DHT22;10400;53.198;6.592;2023-06-24T09:20:27;25.80;1.00
20483;DHT22;10400;53.198;6.592;2023-06-24T09:22:58;26.00;99.90
20483;DHT22;10400;53.198;6.592;2023-06-24T09:25:24;25.90;1.00
20483;DHT22;10400;53.198;6.592;2023-06-24T09:27:50;25.60;1.00
20483;DHT22;10400;53.198;6.592;2023-06-24T09:30:18;25.60;99.90
20483;DHT22;10400;53.198;6.592;2023-06-24T09:32:48;25.60;99.90
20483;DHT22;10400;53.198;6.592;2023-06-24T09:35:14;25.50;1.00
20483;DHT22;10400;53.198;6.592;2023-06-24T09:37:41;25.70;1.00
20483;DHT22;10400;53.198;6.592;2023-06-24T09:40:08;26.10;1.00
20483;DHT22;10400;53.198;6.592;2023-06-24T09:42:35;26.20;99.90
20483;DHT22;10400;53.198;6.592;2023-06-24T09:45:05;26.40;99.90
20483;DHT22;10400;53.198;6.592;2023-06-24T09:47:31;26.50;26.90
20483;DHT22;10400;53.198;6.592;2023-06-24T09:49:57;26.60;1.00
20483;DHT22;10400;53.198;6.592;2023-06-24T09:52:23;26.60;1.00
20483;DHT22;10400;53.198;6.592;2023-06-24T09:54:53;26.80;1.00
20483;DHT22;10400;53.198;6.592;2023-06-24T09:57:29;27.10;1.00
20483;DHT22;10400;53.198;6.592;2023-06-24T09:59:57;27.20;1.00
20483;DHT22;10400;53.198;6.592;2023-06-24T10:02:23;27.10;1.00
20483;DHT22;10400;53.198;6.592;2023-06-24T10:04:50;27.00;1.00
20483;DHT22;10400;53.198;6.592;2023-06-24T10:07:17;27.00;1.00
20483;DHT22;10400;53.198;6.592;2023-06-24T10:09:43;26.80;1.00
20483;DHT22;10400;53.198;6.592;2023-06-24T10:12:09;27.00;1.00
20483;DHT22;10400;53.198;6.592;2023-06-24T10:14:35;27.10;1.00
20483;DHT22;10400;53.198;6.592;2023-06-24T10:17:05;27.40;1.00
20483;DHT22;10400;53.198;6.592;2023-06-24T10:19:38;27.60;1.00
20483;DHT22;10400;53.198;6.592;2023-06-24T10:22:10;27.50;99.90
20483;DHT22;10400;53.198;6.592;2023-06-24T10:24:38;27.60;1.00
20483;DHT22;10400;53.198;6.592;2023-06-24T10:27:16;27.50;1.00
20483;DHT22;10400;53.198;6.592;2023-06-24T10:29:46;27.50;1.00
20483;DHT22;10400;53.198;6.592;2023-06-24T10:32:13;27.60;99.90
20483;DHT22;10400;53.198;6.592;2023-06-24T10:34:43;27.50;99.90
20483;DHT22;10400;53.198;6.592;2023-06-24T10:50:05;28.10;99.90
20483;DHT22;10400;53.198;6.592;2023-06-24T10:52:30;27.90;99.90
20483;DHT22;10400;53.198;6.592;2023-06-24T10:54:58;27.60;99.90
20483;DHT22;10400;53.198;6.592;2023-06-24T10:57:27;27.50;99.90
20483;DHT22;10400;53.198;6.592;2023-06-24T10:59:56;27.60;99.90
20483;DHT22;10400;53.198;6.592;2023-06-24T11:02:24;27.70;99.90
20483;DHT22;10400;53.198;6.592;2023-06-24T11:04:52;27.80;99.90
20483;DHT22;10400;53.198;6.592;2023-06-24T11:07:22;27.70;99.90
20483;DHT22;10400;53.198;6.592;2023-06-24T11:09:56;27.80;99.90
20483;DHT22;10400;53.198;6.592;2023-06-24T11:12:26;27.80;99.90
20483;DHT22;10400;53.198;6.592;2023-06-24T11:14:56;28.30;99.90
20483;DHT22;10400;53.198;6.592;2023-06-24T11:17:22;28.60;99.90
20483;DHT22;10400;53.198;6.592;2023-06-24T11:19:48;28.50;99.90
20483;DHT22;10400;53.198;6.592;2023-06-24T11:22:15;28.60;99.90
20483;DHT22;10400;53.198;6.592;2023-06-24T11:24:41;28.50;99.90
20483;DHT22;10400;53.198;6.592;2023-06-24T11:27:07;28.30;99.90
20483;DHT22;10400;53.198;6.592;2023-06-24T11:29:33;28.20;99.90
20483;DHT22;10400;53.198;6.592;2023-06-24T11:32:03;28.30;99.90
20483;DHT22;10400;53.198;6.592;2023-06-24T11:34:32;28.50;99.90
20483;DHT22;10400;53.198;6.592;2023-06-24T11:36:58;28.70;99.90
20483;DHT22;10400;53.198;6.592;2023-06-24T11:39:27;28.40;99.90
20483;DHT22;10400;53.198;6.592;2023-06-24T11:41:54;28.20;99.90
20483;DHT22;10400;53.198;6.592;2023-06-24T11:44:25;28.40;99.90
20483;DHT22;10400;53.198;6.592;2023-06-24T11:46:51;28.50;99.90
20483;DHT22;10400;53.198;6.592;2023-06-24T11:49:18;28.50;99.90
20483;DHT22;10400;53.198;6.592;2023-06-24T11:51:50;28.30;99.90
20483;DHT22;10400;53.198;6.592;2023-06-24T11:54:21;28.50;99.90
20483;DHT22;10400;53.198;6.592;2023-06-24T11:56:51;28.70;99.90
20483;DHT22;10400;53.198;6.592;2023-06-24T11:59:21;29.10;99.90
20483;DHT22;10400;53.198;6.592;2023-06-24T12:02:06;29.20;99.90
20483;DHT22;10400;53.198;6.592;2023-06-24T12:04:33;29.00;99.90
20483;DHT22;10400;53.198;6.592;2023-06-24T12:06:59;29.00;99.90
20483;DHT22;10400;53.198;6.592;2023-06-24T12:09:26;28.80;99.90
20483;DHT22;10400;53.198;6.592;2023-06-24T12:11:52;28.60;99.90
20483;DHT22;10400;53.198;6.592;2023-06-24T12:14:18;28.40;99.90
20483;DHT22;10400;53.198;6.592;2023-06-24T12:16:44;28.60;99.90
20483;DHT22;10400;53.198;6.592;2023-06-24T12:19:10;28.90;99.90
20483;DHT22;10400;53.198;6.592;2023-06-24T12:21:37;29.10;99.90
20483;DHT22;10400;53.198;6.592;2023-06-24T12:24:04;28.90;99.90
20483;DHT22;10400;53.198;6.592;2023-06-24T12:26:30;28.70;99.90
20483;DHT22;10400;53.198;6.592;2023-06-24T12:28:56;28.70;99.90
20483;DHT22;10400;53.198;6.592;2023-06-24T12:31:22;28.40;99.90
20483;DHT22;10400;53.198;6.592;2023-06-24T12:33:48;28.40;99.90
20483;DHT22;10400;53.198;6.592;2023-06-24T12:36:13;28.20;99.90
20483;DHT22;10400;53.198;6.592;2023-06-24T12:38:39;28.10;99.90
20483;DHT22;10400;53.198;6.592;2023-06-24T12:41:05;28.10;99.90
20483;DHT22;10400;53.198;6.592;2023-06-24T12:43:32;28.10;99.90
20483;DHT22;10400;53.198;6.592;2023-06-24T12:45:57;28.30;99.90
20483;DHT22;10400;53.198;6.592;2023-06-24T12:48:23;28.60;99.90
20483;DHT22;10400;53.198;6.592;2023-06-24T12:50:48;29.10;99.90
20483;DHT22;10400;53.198;6.592;2023-06-24T12:53:18;29.30;99.90
20483;DHT22;10400;53.198;6.592;2023-06-24T12:55:44;29.40;99.90
20483;DHT22;10400;53.198;6.592;2023-06-24T12:58:09;29.60;99.90
20483;DHT22;10400;53.198;6.592;2023-06-24T13:00:35;29.80;99.90
20483;DHT22;10400;53.198;6.592;2023-06-24T13:03:01;29.80;99.90
20483;DHT22;10400;53.198;6.592;2023-06-24T13:05:26;29.80;99.90
20483;DHT22;10400;53.198;6.592;2023-06-24T13:07:52;29.60;99.90
20483;DHT22;10400;53.198;6.592;2023-06-24T13:10:18;29.60;99.90
20483;DHT22;10400;53.198;6.592;2023-06-24T13:12:43;29.90;99.90
20483;DHT22;10400;53.198;6.592;2023-06-24T13:15:09;29.90;99.90
20483;DHT22;10400;53.198;6.592;2023-06-24T13:17:35;29.90;99.90
20483;DHT22;10400;53.198;6.592;2023-06-24T13:20:02;30.10;99.90
20483;DHT22;10400;53.198;6.592;2023-06-24T13:22:30;30.40;99.90
20483;DHT22;10400;53.198;6.592;2023-06-24T13:24:56;30.20;99.90
20483;DHT22;10400;53.198;6.592;2023-06-24T13:27:21;30.00;99.90
20483;DHT22;10400;53.198;6.592;2023-06-24T13:29:47;30.10;99.90
20483;DHT22;10400;53.198;6.592;2023-06-24T13:32:13;30.00;99.90
20483;DHT22;10400;53.198;6.592;2023-06-24T13:34:39;30.20;99.90
20483;DHT22;10400;53.198;6.592;2023-06-24T13:37:05;29.80;99.90
20483;DHT22;10400;53.198;6.592;2023-06-24T13:39:30;29.90;99.90
20483;DHT22;10400;53.198;6.592;2023-06-24T13:41:57;29.90;99.90
20483;DHT22;10400;53.198;6.592;2023-06-24T13:44:22;29.30;99.90
20483;DHT22;10400;53.198;6.592;2023-06-24T13:46:49;29.50;99.90
20483;DHT22;10400;53.198;6.592;2023-06-24T13:49:15;29.40;99.90
20483;DHT22;10400;53.198;6.592;2023-06-24T13:51:41;29.10;99.90
20483;DHT22;10400;53.198;6.592;2023-06-24T13:54:07;29.10;99.90
20483;DHT22;10400;53.198;6.592;2023-06-24T13:56:33;28.90;99.90
20483;DHT22;10400;53.198;6.592;2023-06-24T13:58:59;29.10;99.90
20483;DHT22;10400;53.198;6.592;2023-06-24T14:01:25;28.90;99.90
20483;DHT22;10400;53.198;6.592;2023-06-24T14:03:54;28.80;99.90
20483;DHT22;10400;53.198;6.592;2023-06-24T14:06:21;28.80;99.90
20483;DHT22;10400;53.198;6.592;2023-06-24T14:08:48;28.30;99.90
20483;DHT22;10400;53.198;6.592;2023-06-24T14:11:14;28.50;99.90
20483;DHT22;10400;53.198;6.592;2023-06-24T14:13:41;28.50;99.90
20483;DHT22;10400;53.198;6.592;2023-06-24T14:16:07;28.40;99.90
20483;DHT22;10400;53.198;6.592;2023-06-24T14:18:33;28.50;99.90
20483;DHT22;10400;53.198;6.592;2023-06-24T14:21:00;28.70;99.90
20483;DHT22;10400;53.198;6.592;2023-06-24T14:23:27;28.60;99.90
20483;DHT22;10400;53.198;6.592;2023-06-24T14:25:53;28.50;99.90
20483;DHT22;10400;53.198;6.592;2023-06-24T14:28:37;28.50;99.90
20483;DHT22;10400;53.198;6.592;2023-06-24T14:31:03;28.70;99.90
20483;DHT22;10400;53.198;6.592;2023-06-24T14:33:28;28.80;99.90
20483;DHT22;10400;53.198;6.592;2023-06-24T14:35:54;28.60;99.90
20483;DHT22;10400;53.198;6.592;2023-06-24T14:38:20;28.60;99.90
20483;DHT22;10400;53.198;6.592;2023-06-24T14:40:46;28.70;99.90
20483;DHT22;10400;53.198;6.592;2023-06-24T14:43:12;28.80;1.00
20483;DHT22;10400;53.198;6.592;2023-06-24T14:45:37;28.70;1.00
20483;DHT22;10400;53.198;6.592;2023-06-24T14:48:03;28.70;1.00
20483;DHT22;10400;53.198;6.592;2023-06-24T14:50:28;28.90;1.00
20483;DHT22;10400;53.198;6.592;2023-06-24T14:52:54;28.90;1.00
20483;DHT22;10400;53.198;6.592;2023-06-24T14:55:20;28.90;1.00
20483;DHT22;10400;53.198;6.592;2023-06-24T14:57:45;28.70;1.00
20483;DHT22;10400;53.198;6.592;2023-06-24T15:00:12;28.60;1.00
20483;DHT22;10400;53.198;6.592;2023-06-24T15:02:37;28.50;1.00
20483;DHT22;10400;53.198;6.592;2023-06-24T15:05:03;28.40;1.00
20483;DHT22;10400;53.198;6.592;2023-06-24T15:07:29;28.70;1.00
20483;DHT22;10400;53.198;6.592;2023-06-24T15:09:55;28.80;1.00
20483;DHT22;10400;53.198;6.592;2023-06-24T15:12:20;28.80;1.00
20483;DHT22;10400;53.198;6.592;2023-06-24T15:14:46;28.50;1.00
20483;DHT22;10400;53.198;6.592;2023-06-24T15:17:14;28.30;1.00
20483;DHT22;10400;53.198;6.592;2023-06-24T15:19:40;28.40;1.00
20483;DHT22;10400;53.198;6.592;2023-06-24T15:22:05;28.30;1.00
20483;DHT22;10400;53.198;6.592;2023-06-24T15:24:31;28.20;1.00
20483;DHT22;10400;53.198;6.592;2023-06-24T15:26:57;28.30;1.00
20483;DHT22;10400;53.198;6.592;2023-06-24T15:29:23;28.60;1.00
20483;DHT22;10400;53.198;6.592;2023-06-24T15:31:48;28.80;1.00
20483;DHT22;10400;53.198;6.592;2023-06-24T15:34:14;28.80;1.00
20483;DHT22;10400;53.198;6.592;2023-06-24T15:36:40;29.20;1.00
20483;DHT22;10400;53.198;6.592;2023-06-24T15:39:06;29.50;1.00
20483;DHT22;10400;53.198;6.592;2023-06-24T15:41:31;29.40;1.00
20483;DHT22;10400;53.198;6.592;2023-06-24T15:43:57;29.00;1.00
20483;DHT22;10400;53.198;6.592;2023-06-24T15:46:23;29.20;1.00
20483;DHT22;10400;53.198;6.592;2023-06-24T15:48:48;28.90;1.00
20483;DHT22;10400;53.198;6.592;2023-06-24T15:51:15;28.80;1.00
20483;DHT22;10400;53.198;6.592;2023-06-24T15:53:40;28.70;1.00
20483;DHT22;10400;53.198;6.592;2023-06-24T15:56:06;29.00;1.00
20483;DHT22;10400;53.198;6.592;2023-06-24T15:58:32;28.50;1.00